Selfridge Angb Airport
KMTC : now visible

Airfield :











YOU CAN JOIN US ON...

 
LOGIN :

Register | Disclaimer

   EN    FR    IT 

 









Legend :    VFR   Marginal VFR   IFR   Intensive IFR   Very Intensive IFR
Visi :
Ceiling :
>= 8 km
>= 3000ft
5 to 8 km
1000 to 3000 ft
1500m to 5 km
500 to 1000 ft
800 to 1500m
200 to 500 ft
< 800m
< 200 ft
Symbols :   Thunderstorms  Fog  Heavy snow  Heavy precipitations  Wind > 20 kt






- Airport Elevation : 580 ft


KMTC - Selfridge Angb

CURRENT METAR :
  • 260256Z AUTO 16006KT 10SM CLR 21/21 A3004 RMK AO2 SLP174 T02060206 52014 FZRANO $

EXPIRED METARs :
  • 260156Z AUTO 16007KT 10SM CLR 22/21 A3003 RMK AO2 SLP171 T02160212 FZRANO $
  • 260056Z AUTO 18006KT 10SM CLR 23/21 A3001 RMK AO2 SLP164 T02260207 FZRANO $

TAF TAF KMTC
Valid from the 26 at 01:00 until the 27 at 07:00 UTC


260100Z 2601/2707 VRB06KT 9999 FEW040 QNH3000INS
BECMG 2616/2617 17010G15KT 9000 -SHRA BKN045 OVC050 QNH3008INS
TEMPO 2617/2620 19015G25KT 6000 -TSRA FEW045CB
BECMG 2623/2624 17006KT 9999 NSW BKN045 QNH3005INS TX28/2621Z TN18/2610Z LAST NO AMDS AFT 2603 NEXT 2609
KZOB FIR / North America



MET'MAP, your aeronautical weather chart ! - Copyright ORBIFLY December 2007 - Disclaimer

ORBIFLY MET'MAP TEAM :

Programming & Development : Alexandra Zaïnal
Concept & original design : Baudouin d'Aumeries
Assistance for programming : Marc-Olivier Méhu
Technical & hardware support : Manuel Goepfert

Contact : metmap@orbifly.com




SOURCES & CREDITS :

   NOAA       Earth
Advisory